CheckWX is a tool to help pilots better visualize weather data.  It is not intended as a substitute for an official pre-flight weather briefing.

16:55:16 UTC

RKPK TAF
Gimhae International Airport
Busan, South Korea
TAF RKPK 201100Z 2012/2118 03006KT 9999 FEW030 SCT200 TN11/2021Z TX23/2106Z BECMG 2021/2022 4800 BR SCT030 BKN200 BECMG 2023/2024 9999 NSW

Oct-20@
12:00 UTC

Oct-20 @ 12:00 UTC

Oct-20@
21:00 UTC

Oct-20 @ 21:00 UTC

TAF RKPK 201100Z 2012/2118 03006KT 9999 FEW030 SCT200 TN11/2021Z TX23/2106Z
Wind
  • 030° at 6 KTS
Cloud Levels
  • Few at 3,000' AGL
  • Scattered at 20,000' AGL

Oct-20@
21:00 UTC

Oct-20 @ 21:00 UTC

Oct-20@
23:00 UTC

Oct-20 @ 23:00 UTC

BECMG 2021/2022 4800 BR SCT030 BKN200

Becoming

Becoming Conditions expected by Sun, Oct 20, 2019 @ 22:00 UTC

Wind
  • 030° at 6 KTS
Conditions
Mist
Cloud Levels
  • Scattered at 3,000' AGL
  • Broken at 20,000' AGL

Oct-20@
23:00 UTC

Oct-20 @ 23:00 UTC

Oct-21@
18:00 UTC

Oct-21 @ 18:00 UTC

BECMG 2023/2024 9999 NSW

Becoming

Becoming Conditions expected by Mon, Oct 21, 2019 @ 00:00 UTC

Wind
  • 030° at 6 KTS
Conditions
No significant weather
Cloud Levels
  • Scattered at 3,000' AGL
  • Broken at 20,000' AGL